sensor_id;sensor_type;location;lat;lon;timestamp;P1;durP1;ratioP1;P2;durP2;ratioP2
19842;SDS011;10082;51.038;6.992;2022-09-17T00:01:20;4.28;;;1.75;;
19842;SDS011;10082;51.038;6.992;2022-09-17T00:03:50;5.10;;;2.05;;
19842;SDS011;10082;51.038;6.992;2022-09-17T00:06:19;4.25;;;1.73;;
19842;SDS011;10082;51.038;6.992;2022-09-17T00:08:46;6.93;;;1.95;;
19842;SDS011;10082;51.038;6.992;2022-09-17T00:11:14;5.47;;;2.05;;
19842;SDS011;10082;51.038;6.992;2022-09-17T00:13:47;6.32;;;1.80;;
19842;SDS011;10082;51.038;6.992;2022-09-17T00:16:20;4.68;;;2.03;;
19842;SDS011;10082;51.038;6.992;2022-09-17T00:18:51;6.40;;;2.40;;
19842;SDS011;10082;51.038;6.992;2022-09-17T00:21:18;5.88;;;1.92;;
19842;SDS011;10082;51.038;6.992;2022-09-17T00:23:45;4.45;;;1.95;;
19842;SDS011;10082;51.038;6.992;2022-09-17T00:26:13;7.05;;;2.58;;
19842;SDS011;10082;51.038;6.992;2022-09-17T00:28:40;4.93;;;2.10;;
19842;SDS011;10082;51.038;6.992;2022-09-17T00:31:09;6.32;;;2.20;;
19842;SDS011;10082;51.038;6.992;2022-09-17T00:33:36;5.70;;;2.17;;
19842;SDS011;10082;51.038;6.992;2022-09-17T00:36:05;4.88;;;2.17;;
19842;SDS011;10082;51.038;6.992;2022-09-17T00:38:33;4.07;;;1.98;;
19842;SDS011;10082;51.038;6.992;2022-09-17T00:41:00;7.57;;;2.58;;
19842;SDS011;10082;51.038;6.992;2022-09-17T00:43:31;5.53;;;1.83;;
19842;SDS011;10082;51.038;6.992;2022-09-17T00:46:00;5.80;;;2.25;;
19842;SDS011;10082;51.038;6.992;2022-09-17T00:48:28;9.27;;;2.50;;
19842;SDS011;10082;51.038;6.992;2022-09-17T00:50:56;5.47;;;2.05;;
19842;SDS011;10082;51.038;6.992;2022-09-17T00:53:28;6.75;;;2.10;;
19842;SDS011;10082;51.038;6.992;2022-09-17T00:55:56;5.75;;;2.22;;
19842;SDS011;10082;51.038;6.992;2022-09-17T00:58:27;6.80;;;2.42;;
19842;SDS011;10082;51.038;6.992;2022-09-17T01:00:56;4.97;;;1.80;;
19842;SDS011;10082;51.038;6.992;2022-09-17T01:03:24;6.00;;;2.40;;
19842;SDS011;10082;51.038;6.992;2022-09-17T01:05:53;6.53;;;2.38;;
19842;SDS011;10082;51.038;6.992;2022-09-17T01:08:31;8.90;;;2.50;;
19842;SDS011;10082;51.038;6.992;2022-09-17T01:11:15;6.82;;;2.50;;
19842;SDS011;10082;51.038;6.992;2022-09-17T01:14:01;6.13;;;2.22;;
19842;SDS011;10082;51.038;6.992;2022-09-17T01:16:40;7.32;;;2.10;;
19842;SDS011;10082;51.038;6.992;2022-09-17T01:19:21;6.78;;;2.42;;
19842;SDS011;10082;51.038;6.992;2022-09-17T01:22:06;5.32;;;2.30;;
19842;SDS011;10082;51.038;6.992;2022-09-17T01:24:57;8.20;;;2.30;;
19842;SDS011;10082;51.038;6.992;2022-09-17T01:28:00;6.93;;;2.55;;
19842;SDS011;10082;51.038;6.992;2022-09-17T01:33:37;7.40;;;2.20;;
19842;SDS011;10082;51.038;6.992;2022-09-17T01:36:13;6.95;;;2.58;;
19842;SDS011;10082;51.038;6.992;2022-09-17T01:38:51;8.88;;;2.30;;
19842;SDS011;10082;51.038;6.992;2022-09-17T01:41:23;8.75;;;2.83;;
19842;SDS011;10082;51.038;6.992;2022-09-17T01:43:58;4.97;;;2.63;;
19842;SDS011;10082;51.038;6.992;2022-09-17T01:46:34;7.30;;;2.58;;
19842;SDS011;10082;51.038;6.992;2022-09-17T01:49:05;5.03;;;2.70;;
19842;SDS011;10082;51.038;6.992;2022-09-17T01:51:35;7.90;;;2.42;;
19842;SDS011;10082;51.038;6.992;2022-09-17T01:54:06;7.50;;;2.55;;
19842;SDS011;10082;51.038;6.992;2022-09-17T01:56:36;4.88;;;2.50;;
19842;SDS011;10082;51.038;6.992;2022-09-17T01:59:08;8.07;;;2.65;;
19842;SDS011;10082;51.038;6.992;2022-09-17T02:01:42;5.97;;;2.67;;
19842;SDS011;10082;51.038;6.992;2022-09-17T02:04:14;9.13;;;2.78;;
19842;SDS011;10082;51.038;6.992;2022-09-17T02:06:46;6.35;;;3.03;;
19842;SDS011;10082;51.038;6.992;2022-09-17T02:09:21;7.90;;;2.63;;
19842;SDS011;10082;51.038;6.992;2022-09-17T02:11:53;6.53;;;2.25;;
19842;SDS011;10082;51.038;6.992;2022-09-17T02:14:23;6.85;;;2.40;;
19842;SDS011;10082;51.038;6.992;2022-09-17T02:16:55;7.68;;;2.88;;
19842;SDS011;10082;51.038;6.992;2022-09-17T02:19:29;6.97;;;2.15;;
19842;SDS011;10082;51.038;6.992;2022-09-17T02:22:02;8.85;;;2.72;;
19842;SDS011;10082;51.038;6.992;2022-09-17T02:24:34;7.35;;;2.47;;
19842;SDS011;10082;51.038;6.992;2022-09-17T02:27:09;7.40;;;2.85;;
19842;SDS011;10082;51.038;6.992;2022-09-17T02:29:50;7.15;;;2.40;;
19842;SDS011;10082;51.038;6.992;2022-09-17T02:32:20;8.90;;;2.83;;
19842;SDS011;10082;51.038;6.992;2022-09-17T02:34:48;7.40;;;2.75;;
19842;SDS011;10082;51.038;6.992;2022-09-17T02:37:16;10.32;;;2.90;;
19842;SDS011;10082;51.038;6.992;2022-09-17T02:39:43;8.93;;;2.85;;
19842;SDS011;10082;51.038;6.992;2022-09-17T02:42:12;9.93;;;2.63;;
19842;SDS011;10082;51.038;6.992;2022-09-17T02:44:51;5.72;;;2.70;;
19842;SDS011;10082;51.038;6.992;2022-09-17T02:47:41;8.75;;;3.00;;
19842;SDS011;10082;51.038;6.992;2022-09-17T02:50:22;6.30;;;2.75;;
19842;SDS011;10082;51.038;6.992;2022-09-17T02:53:04;6.47;;;3.00;;
19842;SDS011;10082;51.038;6.992;2022-09-17T02:55:42;9.40;;;3.22;;
19842;SDS011;10082;51.038;6.992;2022-09-17T02:58:18;6.53;;;2.53;;
19842;SDS011;10082;51.038;6.992;2022-09-17T03:00:51;6.22;;;2.55;;
19842;SDS011;10082;51.038;6.992;2022-09-17T03:03:22;7.20;;;2.70;;
19842;SDS011;10082;51.038;6.992;2022-09-17T03:05:55;8.43;;;2.70;;
19842;SDS011;10082;51.038;6.992;2022-09-17T03:08:26;10.70;;;3.00;;
19842;SDS011;10082;51.038;6.992;2022-09-17T03:10:55;6.55;;;2.50;;
19842;SDS011;10082;51.038;6.992;2022-09-17T03:13:22;10.82;;;3.47;;
19842;SDS011;10082;51.038;6.992;2022-09-17T03:15:49;6.43;;;2.63;;
19842;SDS011;10082;51.038;6.992;2022-09-17T03:18:16;7.75;;;2.60;;
19842;SDS011;10082;51.038;6.992;2022-09-17T03:20:44;6.88;;;2.47;;
19842;SDS011;10082;51.038;6.992;2022-09-17T03:23:11;9.35;;;2.75;;
19842;SDS011;10082;51.038;6.992;2022-09-17T03:25:38;7.32;;;2.65;;
19842;SDS011;10082;51.038;6.992;2022-09-17T03:28:09;8.52;;;3.38;;
19842;SDS011;10082;51.038;6.992;2022-09-17T03:30:36;7.38;;;2.53;;
19842;SDS011;10082;51.038;6.992;2022-09-17T03:33:03;6.63;;;2.30;;
19842;SDS011;10082;51.038;6.992;2022-09-17T03:35:30;5.10;;;2.25;;
19842;SDS011;10082;51.038;6.992;2022-09-17T03:37:58;8.07;;;2.03;;
19842;SDS011;10082;51.038;6.992;2022-09-17T03:40:25;7.53;;;2.22;;
19842;SDS011;10082;51.038;6.992;2022-09-17T03:42:52;7.78;;;2.00;;
19842;SDS011;10082;51.038;6.992;2022-09-17T03:45:19;5.97;;;1.90;;
19842;SDS011;10082;51.038;6.992;2022-09-17T03:47:45;9.55;;;2.60;;
19842;SDS011;10082;51.038;6.992;2022-09-17T03:50:12;7.82;;;2.28;;
19842;SDS011;10082;51.038;6.992;2022-09-17T03:52:39;7.68;;;2.15;;
19842;SDS011;10082;51.038;6.992;2022-09-17T03:55:09;10.50;;;2.70;;
19842;SDS011;10082;51.038;6.992;2022-09-17T03:57:36;7.97;;;2.28;;
19842;SDS011;10082;51.038;6.992;2022-09-17T04:00:04;6.68;;;2.03;;
19842;SDS011;10082;51.038;6.992;2022-09-17T04:02:36;6.75;;;1.60;;
19842;SDS011;10082;51.038;6.992;2022-09-17T04:05:04;7.57;;;2.45;;
19842;SDS011;10082;51.038;6.992;2022-09-17T04:07:32;12.52;;;2.42;;
19842;SDS011;10082;51.038;6.992;2022-09-17T04:09:58;7.80;;;1.88;;
19842;SDS011;10082;51.038;6.992;2022-09-17T04:12:27;7.10;;;2.00;;
19842;SDS011;10082;51.038;6.992;2022-09-17T04:14:54;8.00;;;2.10;;
19842;SDS011;10082;51.038;6.992;2022-09-17T04:17:21;7.95;;;2.45;;
19842;SDS011;10082;51.038;6.992;2022-09-17T04:19:48;6.40;;;2.00;;
19842;SDS011;10082;51.038;6.992;2022-09-17T04:22:15;7.50;;;2.15;;
19842;SDS011;10082;51.038;6.992;2022-09-17T04:24:42;7.75;;;2.35;;
19842;SDS011;10082;51.038;6.992;2022-09-17T04:27:09;6.43;;;1.80;;
19842;SDS011;10082;51.038;6.992;2022-09-17T04:29:37;7.18;;;2.45;;
19842;SDS011;10082;51.038;6.992;2022-09-17T04:32:04;10.82;;;2.40;;
19842;SDS011;10082;51.038;6.992;2022-09-17T04:34:31;7.30;;;1.95;;
19842;SDS011;10082;51.038;6.992;2022-09-17T04:36:58;7.43;;;2.42;;
19842;SDS011;10082;51.038;6.992;2022-09-17T04:39:25;7.82;;;2.28;;
19842;SDS011;10082;51.038;6.992;2022-09-17T04:41:52;6.18;;;1.95;;
19842;SDS011;10082;51.038;6.992;2022-09-17T04:44:19;6.43;;;2.47;;
19842;SDS011;10082;51.038;6.992;2022-09-17T04:46:47;6.03;;;1.80;;
19842;SDS011;10082;51.038;6.992;2022-09-17T04:49:14;8.63;;;2.15;;
19842;SDS011;10082;51.038;6.992;2022-09-17T04:51:41;11.43;;;2.08;;
19842;SDS011;10082;51.038;6.992;2022-09-17T04:54:08;5.97;;;1.90;;
19842;SDS011;10082;51.038;6.992;2022-09-17T04:56:34;6.70;;;2.30;;
19842;SDS011;10082;51.038;6.992;2022-09-17T04:59:01;7.88;;;2.28;;
19842;SDS011;10082;51.038;6.992;2022-09-17T05:01:28;6.47;;;2.17;;
19842;SDS011;10082;51.038;6.992;2022-09-17T05:03:56;7.80;;;2.15;;
19842;SDS011;10082;51.038;6.992;2022-09-17T05:06:23;9.60;;;2.28;;
19842;SDS011;10082;51.038;6.992;2022-09-17T05:08:50;6.07;;;1.90;;
19842;SDS011;10082;51.038;6.992;2022-09-17T05:11:17;5.95;;;1.80;;
19842;SDS011;10082;51.038;6.992;2022-09-17T05:13:44;5.80;;;2.33;;
19842;SDS011;10082;51.038;6.992;2022-09-17T05:16:10;8.85;;;2.38;;
19842;SDS011;10082;51.038;6.992;2022-09-17T05:18:37;6.60;;;1.95;;
19842;SDS011;10082;51.038;6.992;2022-09-17T05:21:06;6.70;;;2.20;;
19842;SDS011;10082;51.038;6.992;2022-09-17T05:23:32;8.75;;;2.30;;
19842;SDS011;10082;51.038;6.992;2022-09-17T05:25:59;7.10;;;2.00;;
19842;SDS011;10082;51.038;6.992;2022-09-17T05:28:27;7.15;;;1.80;;
19842;SDS011;10082;51.038;6.992;2022-09-17T05:30:57;6.45;;;1.98;;
19842;SDS011;10082;51.038;6.992;2022-09-17T05:33:24;7.10;;;2.25;;
19842;SDS011;10082;51.038;6.992;2022-09-17T05:35:51;8.60;;;1.98;;
19842;SDS011;10082;51.038;6.992;2022-09-17T05:38:19;5.63;;;1.95;;
19842;SDS011;10082;51.038;6.992;2022-09-17T05:40:46;7.95;;;2.30;;
19842;SDS011;10082;51.038;6.992;2022-09-17T05:43:14;9.00;;;2.08;;
19842;SDS011;10082;51.038;6.992;2022-09-17T05:45:42;8.35;;;1.85;;
19842;SDS011;10082;51.038;6.992;2022-09-17T05:48:10;4.13;;;1.92;;
19842;SDS011;10082;51.038;6.992;2022-09-17T05:50:38;9.50;;;2.60;;
19842;SDS011;10082;51.038;6.992;2022-09-17T05:53:06;10.38;;;2.63;;
19842;SDS011;10082;51.038;6.992;2022-09-17T05:55:37;8.07;;;2.33;;
19842;SDS011;10082;51.038;6.992;2022-09-17T05:58:08;6.13;;;2.17;;
19842;SDS011;10082;51.038;6.992;2022-09-17T06:00:35;7.15;;;2.15;;
19842;SDS011;10082;51.038;6.992;2022-09-17T06:03:02;8.80;;;2.45;;
19842;SDS011;10082;51.038;6.992;2022-09-17T06:05:29;8.50;;;2.25;;
19842;SDS011;10082;51.038;6.992;2022-09-17T06:07:56;9.15;;;2.78;;
19842;SDS011;10082;51.038;6.992;2022-09-17T06:10:23;9.68;;;2.95;;
19842;SDS011;10082;51.038;6.992;2022-09-17T06:12:55;10.07;;;2.72;;
19842;SDS011;10082;51.038;6.992;2022-09-17T06:15:23;6.90;;;2.60;;
19842;SDS011;10082;51.038;6.992;2022-09-17T06:17:50;8.23;;;2.97;;
19842;SDS011;10082;51.038;6.992;2022-09-17T06:20:16;8.02;;;2.47;;
19842;SDS011;10082;51.038;6.992;2022-09-17T06:22:43;7.63;;;2.30;;
19842;SDS011;10082;51.038;6.992;2022-09-17T06:25:11;11.43;;;2.83;;
19842;SDS011;10082;51.038;6.992;2022-09-17T06:27:38;9.00;;;2.53;;
19842;SDS011;10082;51.038;6.992;2022-09-17T06:30:07;9.35;;;2.53;;
19842;SDS011;10082;51.038;6.992;2022-09-17T06:32:34;9.25;;;2.75;;
19842;SDS011;10082;51.038;6.992;2022-09-17T06:35:01;9.75;;;3.05;;
19842;SDS011;10082;51.038;6.992;2022-09-17T06:37:28;7.20;;;2.75;;
19842;SDS011;10082;51.038;6.992;2022-09-17T06:39:56;8.57;;;2.63;;
19842;SDS011;10082;51.038;6.992;2022-09-17T06:42:23;9.13;;;2.47;;
19842;SDS011;10082;51.038;6.992;2022-09-17T06:44:51;6.65;;;1.83;;
19842;SDS011;10082;51.038;6.992;2022-09-17T06:47:19;5.55;;;1.98;;
19842;SDS011;10082;51.038;6.992;2022-09-17T06:49:49;6.13;;;1.52;;
19842;SDS011;10082;51.038;6.992;2022-09-17T06:52:16;8.32;;;2.08;;
19842;SDS011;10082;51.038;6.992;2022-09-17T06:54:43;7.03;;;1.77;;
19842;SDS011;10082;51.038;6.992;2022-09-17T06:57:10;8.35;;;1.85;;
19842;SDS011;10082;51.038;6.992;2022-09-17T06:59:37;5.43;;;1.90;;
19842;SDS011;10082;51.038;6.992;2022-09-17T07:02:04;7.45;;;2.00;;
19842;SDS011;10082;51.038;6.992;2022-09-17T07:04:33;5.35;;;1.50;;
19842;SDS011;10082;51.038;6.992;2022-09-17T07:07:00;5.80;;;1.77;;
19842;SDS011;10082;51.038;6.992;2022-09-17T07:09:27;6.47;;;1.55;;
19842;SDS011;10082;51.038;6.992;2022-09-17T07:11:54;7.80;;;1.70;;
19842;SDS011;10082;51.038;6.992;2022-09-17T07:14:21;4.45;;;1.45;;
19842;SDS011;10082;51.038;6.992;2022-09-17T07:16:49;5.90;;;1.70;;
19842;SDS011;10082;51.038;6.992;2022-09-17T07:19:17;6.53;;;1.73;;
19842;SDS011;10082;51.038;6.992;2022-09-17T07:21:48;5.25;;;1.92;;
19842;SDS011;10082;51.038;6.992;2022-09-17T07:24:15;4.80;;;1.55;;
19842;SDS011;10082;51.038;6.992;2022-09-17T07:26:41;5.07;;;1.63;;
19842;SDS011;10082;51.038;6.992;2022-09-17T07:29:08;6.78;;;1.60;;
19842;SDS011;10082;51.038;6.992;2022-09-17T07:31:36;8.48;;;2.00;;
19842;SDS011;10082;51.038;6.992;2022-09-17T07:34:03;4.53;;;1.50;;
19842;SDS011;10082;51.038;6.992;2022-09-17T07:36:30;6.57;;;1.52;;
19842;SDS011;10082;51.038;6.992;2022-09-17T07:38:58;5.95;;;1.85;;
19842;SDS011;10082;51.038;6.992;2022-09-17T07:41:25;5.60;;;1.60;;
19842;SDS011;10082;51.038;6.992;2022-09-17T07:43:52;6.50;;;1.90;;
19842;SDS011;10082;51.038;6.992;2022-09-17T07:46:20;7.53;;;2.10;;
19842;SDS011;10082;51.038;6.992;2022-09-17T07:48:47;5.78;;;1.75;;
19842;SDS011;10082;51.038;6.992;2022-09-17T07:51:16;6.90;;;2.15;;
19842;SDS011;10082;51.038;6.992;2022-09-17T07:53:43;5.90;;;2.10;;
19842;SDS011;10082;51.038;6.992;2022-09-17T07:56:12;6.68;;;2.15;;
19842;SDS011;10082;51.038;6.992;2022-09-17T07:58:39;6.53;;;2.03;;
19842;SDS011;10082;51.038;6.992;2022-09-17T08:01:07;5.75;;;1.92;;
19842;SDS011;10082;51.038;6.992;2022-09-17T08:03:35;5.28;;;1.77;;
19842;SDS011;10082;51.038;6.992;2022-09-17T08:06:04;5.90;;;1.80;;
19842;SDS011;10082;51.038;6.992;2022-09-17T08:08:33;6.82;;;1.80;;
19842;SDS011;10082;51.038;6.992;2022-09-17T08:11:01;5.13;;;1.42;;
19842;SDS011;10082;51.038;6.992;2022-09-17T08:13:30;7.30;;;1.83;;
19842;SDS011;10082;51.038;6.992;2022-09-17T08:15:57;5.38;;;1.75;;
19842;SDS011;10082;51.038;6.992;2022-09-17T08:18:25;7.28;;;2.00;;
19842;SDS011;10082;51.038;6.992;2022-09-17T08:20:55;6.85;;;1.70;;
19842;SDS011;10082;51.038;6.992;2022-09-17T08:23:23;5.40;;;1.60;;
19842;SDS011;10082;51.038;6.992;2022-09-17T08:25:51;5.03;;;1.83;;
19842;SDS011;10082;51.038;6.992;2022-09-17T08:28:18;5.38;;;1.52;;
19842;SDS011;10082;51.038;6.992;2022-09-17T08:30:47;4.30;;;1.33;;
19842;SDS011;10082;51.038;6.992;2022-09-17T08:33:14;3.80;;;1.30;;
19842;SDS011;10082;51.038;6.992;2022-09-17T08:35:41;4.32;;;1.52;;
19842;SDS011;10082;51.038;6.992;2022-09-17T08:38:08;4.70;;;1.75;;
19842;SDS011;10082;51.038;6.992;2022-09-17T08:40:35;4.47;;;1.60;;
19842;SDS011;10082;51.038;6.992;2022-09-17T08:43:09;5.78;;;1.50;;
19842;SDS011;10082;51.038;6.992;2022-09-17T08:45:43;6.60;;;1.80;;
19842;SDS011;10082;51.038;6.992;2022-09-17T08:48:12;5.38;;;1.52;;
19842;SDS011;10082;51.038;6.992;2022-09-17T08:50:39;4.35;;;1.55;;
19842;SDS011;10082;51.038;6.992;2022-09-17T08:56:08;3.70;;;1.38;;
19842;SDS011;10082;51.038;6.992;2022-09-17T08:58:40;5.22;;;1.30;;
19842;SDS011;10082;51.038;6.992;2022-09-17T09:01:18;3.72;;;1.48;;
19842;SDS011;10082;51.038;6.992;2022-09-17T09:03:57;5.05;;;1.27;;
19842;SDS011;10082;51.038;6.992;2022-09-17T09:06:35;4.07;;;1.50;;
19842;SDS011;10082;51.038;6.992;2022-09-17T09:09:07;4.63;;;1.48;;
19842;SDS011;10082;51.038;6.992;2022-09-17T09:11:38;3.38;;;1.38;;
19842;SDS011;10082;51.038;6.992;2022-09-17T09:14:10;5.28;;;1.60;;
19842;SDS011;10082;51.038;6.992;2022-09-17T09:16:44;5.03;;;1.30;;
19842;SDS011;10082;51.038;6.992;2022-09-17T09:19:16;4.80;;;1.52;;
19842;SDS011;10082;51.038;6.992;2022-09-17T09:21:48;5.68;;;1.65;;
19842;SDS011;10082;51.038;6.992;2022-09-17T09:24:28;7.03;;;1.50;;
19842;SDS011;10082;51.038;6.992;2022-09-17T09:27:04;6.97;;;1.67;;
19842;SDS011;10082;51.038;6.992;2022-09-17T09:29:42;6.22;;;1.30;;
19842;SDS011;10082;51.038;6.992;2022-09-17T09:32:20;5.68;;;1.83;;
19842;SDS011;10082;51.038;6.992;2022-09-17T09:35:12;4.10;;;1.30;;
19842;SDS011;10082;51.038;6.992;2022-09-17T09:37:43;6.05;;;1.42;;
19842;SDS011;10082;51.038;6.992;2022-09-17T09:40:21;3.83;;;1.50;;
19842;SDS011;10082;51.038;6.992;2022-09-17T09:42:56;4.85;;;1.40;;
19842;SDS011;10082;51.038;6.992;2022-09-17T09:45:32;4.22;;;1.25;;
19842;SDS011;10082;51.038;6.992;2022-09-17T09:48:10;3.92;;;1.50;;
19842;SDS011;10082;51.038;6.992;2022-09-17T09:50:48;4.85;;;1.45;;
19842;SDS011;10082;51.038;6.992;2022-09-17T09:53:25;5.10;;;1.00;;
19842;SDS011;10082;51.038;6.992;2022-09-17T09:56:05;4.00;;;1.40;;
19842;SDS011;10082;51.038;6.992;2022-09-17T09:58:50;4.35;;;1.40;;
19842;SDS011;10082;51.038;6.992;2022-09-17T10:01:17;4.75;;;1.40;;
19842;SDS011;10082;51.038;6.992;2022-09-17T10:03:46;4.68;;;1.45;;
19842;SDS011;10082;51.038;6.992;2022-09-17T10:06:17;4.95;;;1.10;;
19842;SDS011;10082;51.038;6.992;2022-09-17T10:11:37;3.13;;;1.35;;
19842;SDS011;10082;51.038;6.992;2022-09-17T10:14:13;4.45;;;1.50;;
19842;SDS011;10082;51.038;6.992;2022-09-17T10:16:47;6.15;;;1.42;;
19842;SDS011;10082;51.038;6.992;2022-09-17T10:19:17;3.38;;;1.15;;
19842;SDS011;10082;51.038;6.992;2022-09-17T10:21:50;3.45;;;1.42;;
19842;SDS011;10082;51.038;6.992;2022-09-17T10:24:21;3.17;;;1.20;;
19842;SDS011;10082;51.038;6.992;2022-09-17T10:26:50;4.07;;;1.30;;
19842;SDS011;10082;51.038;6.992;2022-09-17T10:29:25;4.95;;;1.50;;
19842;SDS011;10082;51.038;6.992;2022-09-17T10:31:53;4.63;;;1.42;;
19842;SDS011;10082;51.038;6.992;2022-09-17T10:34:21;4.32;;;1.38;;
19842;SDS011;10082;51.038;6.992;2022-09-17T10:36:52;4.75;;;1.58;;
19842;SDS011;10082;51.038;6.992;2022-09-17T10:39:31;2.50;;;1.10;;
19842;SDS011;10082;51.038;6.992;2022-09-17T10:42:01;4.47;;;1.23;;
19842;SDS011;10082;51.038;6.992;2022-09-17T10:44:30;2.60;;;1.20;;
19842;SDS011;10082;51.038;6.992;2022-09-17T10:47:04;3.00;;;1.17;;
19842;SDS011;10082;51.038;6.992;2022-09-17T10:49:34;2.90;;;1.15;;
19842;SDS011;10082;51.038;6.992;2022-09-17T10:52:09;3.03;;;1.00;;
19842;SDS011;10082;51.038;6.992;2022-09-17T10:57:34;4.45;;;1.20;;
19842;SDS011;10082;51.038;6.992;2022-09-17T11:00:11;3.40;;;1.30;;
19842;SDS011;10082;51.038;6.992;2022-09-17T11:05:49;3.55;;;1.05;;
19842;SDS011;10082;51.038;6.992;2022-09-17T11:08:30;2.40;;;1.13;;
19842;SDS011;10082;51.038;6.992;2022-09-17T11:11:05;3.80;;;1.40;;
19842;SDS011;10082;51.038;6.992;2022-09-17T11:13:36;3.38;;;1.10;;
19842;SDS011;10082;51.038;6.992;2022-09-17T11:16:13;2.88;;;1.00;;
19842;SDS011;10082;51.038;6.992;2022-09-17T11:18:51;4.45;;;0.93;;
19842;SDS011;10082;51.038;6.992;2022-09-17T11:21:33;2.83;;;0.90;;
19842;SDS011;10082;51.038;6.992;2022-09-17T11:27:01;4.47;;;0.93;;
19842;SDS011;10082;51.038;6.992;2022-09-17T11:29:43;3.70;;;1.30;;
19842;SDS011;10082;51.038;6.992;2022-09-17T11:32:27;3.92;;;1.00;;
19842;SDS011;10082;51.038;6.992;2022-09-17T11:35:13;2.65;;;1.00;;
19842;SDS011;10082;51.038;6.992;2022-09-17T11:37:43;2.03;;;0.93;;
19842;SDS011;10082;51.038;6.992;2022-09-17T11:40:18;3.50;;;0.90;;
19842;SDS011;10082;51.038;6.992;2022-09-17T11:42:50;2.22;;;0.95;;
19842;SDS011;10082;51.038;6.992;2022-09-17T11:45:23;4.28;;;1.35;;
19842;SDS011;10082;51.038;6.992;2022-09-17T11:47:54;2.88;;;0.85;;
19842;SDS011;10082;51.038;6.992;2022-09-17T11:50:27;1.85;;;0.82;;
19842;SDS011;10082;51.038;6.992;2022-09-17T11:53:00;1.92;;;0.90;;
19842;SDS011;10082;51.038;6.992;2022-09-17T11:55:34;2.38;;;0.80;;
19842;SDS011;10082;51.038;6.992;2022-09-17T11:58:08;2.70;;;1.02;;
19842;SDS011;10082;51.038;6.992;2022-09-17T12:00:41;2.17;;;0.90;;
19842;SDS011;10082;51.038;6.992;2022-09-17T12:03:15;2.83;;;0.57;;
19842;SDS011;10082;51.038;6.992;2022-09-17T12:05:49;3.40;;;0.93;;
19842;SDS011;10082;51.038;6.992;2022-09-17T12:08:20;1.58;;;0.70;;
19842;SDS011;10082;51.038;6.992;2022-09-17T12:10:51;3.70;;;1.08;;
19842;SDS011;10082;51.038;6.992;2022-09-17T12:13:29;5.22;;;1.60;;
19842;SDS011;10082;51.038;6.992;2022-09-17T12:16:09;2.75;;;1.00;;
19842;SDS011;10082;51.038;6.992;2022-09-17T12:18:47;2.67;;;0.98;;
19842;SDS011;10082;51.038;6.992;2022-09-17T12:21:20;2.10;;;0.90;;
19842;SDS011;10082;51.038;6.992;2022-09-17T12:23:53;2.30;;;0.75;;
19842;SDS011;10082;51.038;6.992;2022-09-17T12:26:29;1.38;;;0.73;;
19842;SDS011;10082;51.038;6.992;2022-09-17T12:29:10;1.67;;;0.80;;
19842;SDS011;10082;51.038;6.992;2022-09-17T12:31:54;2.42;;;0.70;;
19842;SDS011;10082;51.038;6.992;2022-09-17T12:34:28;1.30;;;0.70;;
19842;SDS011;10082;51.038;6.992;2022-09-17T12:37:07;3.03;;;0.80;;
19842;SDS011;10082;51.038;6.992;2022-09-17T12:42:46;1.52;;;0.75;;
19842;SDS011;10082;51.038;6.992;2022-09-17T12:45:25;4.00;;;1.13;;
19842;SDS011;10082;51.038;6.992;2022-09-17T12:51:02;2.83;;;1.02;;
19842;SDS011;10082;51.038;6.992;2022-09-17T12:53:40;3.80;;;1.38;;
19842;SDS011;10082;51.038;6.992;2022-09-17T12:56:13;3.30;;;1.17;;
19842;SDS011;10082;51.038;6.992;2022-09-17T12:58:59;2.10;;;0.88;;
19842;SDS011;10082;51.038;6.992;2022-09-17T13:01:32;3.50;;;1.40;;
19842;SDS011;10082;51.038;6.992;2022-09-17T13:04:09;2.58;;;0.80;;
19842;SDS011;10082;51.038;6.992;2022-09-17T13:09:46;3.13;;;0.80;;
19842;SDS011;10082;51.038;6.992;2022-09-17T13:12:25;2.30;;;1.23;;
19842;SDS011;10082;51.038;6.992;2022-09-17T13:15:19;3.80;;;2.10;;
19842;SDS011;10082;51.038;6.992;2022-09-17T13:18:06;2.67;;;1.20;;
19842;SDS011;10082;51.038;6.992;2022-09-17T13:20:42;1.98;;;0.80;;
19842;SDS011;10082;51.038;6.992;2022-09-17T13:23:32;1.38;;;0.57;;
19842;SDS011;10082;51.038;6.992;2022-09-17T13:26:03;1.75;;;0.63;;
19842;SDS011;10082;51.038;6.992;2022-09-17T13:28:35;3.13;;;0.88;;
19842;SDS011;10082;51.038;6.992;2022-09-17T13:31:04;2.28;;;0.80;;
19842;SDS011;10082;51.038;6.992;2022-09-17T13:36:35;2.05;;;0.60;;
19842;SDS011;10082;51.038;6.992;2022-09-17T13:39:05;1.27;;;0.60;;
19842;SDS011;10082;51.038;6.992;2022-09-17T13:41:34;0.55;;;0.55;;
19842;SDS011;10082;51.038;6.992;2022-09-17T13:44:03;0.80;;;0.80;;
19842;SDS011;10082;51.038;6.992;2022-09-17T13:46:34;0.68;;;0.57;;
19842;SDS011;10082;51.038;6.992;2022-09-17T13:49:03;2.00;;;0.60;;
19842;SDS011;10082;51.038;6.992;2022-09-17T13:51:44;1.60;;;0.80;;
19842;SDS011;10082;51.038;6.992;2022-09-17T13:54:13;1.88;;;0.55;;
19842;SDS011;10082;51.038;6.992;2022-09-17T13:56:42;1.92;;;0.70;;
19842;SDS011;10082;51.038;6.992;2022-09-17T13:59:12;1.75;;;0.57;;
19842;SDS011;10082;51.038;6.992;2022-09-17T14:01:56;0.55;;;0.55;;
19842;SDS011;10082;51.038;6.992;2022-09-17T14:04:48;1.40;;;0.80;;
19842;SDS011;10082;51.038;6.992;2022-09-17T14:07:29;1.30;;;0.90;;
19842;SDS011;10082;51.038;6.992;2022-09-17T14:09:58;1.52;;;0.60;;
19842;SDS011;10082;51.038;6.992;2022-09-17T14:15:30;3.40;;;0.93;;
19842;SDS011;10082;51.038;6.992;2022-09-17T14:21:15;1.65;;;0.90;;
19842;SDS011;10082;51.038;6.992;2022-09-17T14:23:51;1.52;;;0.80;;
19842;SDS011;10082;51.038;6.992;2022-09-17T14:26:25;1.30;;;0.90;;
19842;SDS011;10082;51.038;6.992;2022-09-17T14:29:04;2.53;;;0.90;;
19842;SDS011;10082;51.038;6.992;2022-09-17T14:31:36;2.95;;;1.00;;
19842;SDS011;10082;51.038;6.992;2022-09-17T14:34:08;2.65;;;0.90;;
19842;SDS011;10082;51.038;6.992;2022-09-17T14:36:44;1.55;;;0.90;;
19842;SDS011;10082;51.038;6.992;2022-09-17T14:39:12;2.03;;;1.08;;
19842;SDS011;10082;51.038;6.992;2022-09-17T14:41:43;2.30;;;0.68;;
19842;SDS011;10082;51.038;6.992;2022-09-17T14:44:11;4.70;;;1.00;;
19842;SDS011;10082;51.038;6.992;2022-09-17T14:46:41;1.20;;;0.90;;
19842;SDS011;10082;51.038;6.992;2022-09-17T14:49:17;2.30;;;0.90;;
19842;SDS011;10082;51.038;6.992;2022-09-17T14:51:46;0.88;;;0.70;;
19842;SDS011;10082;51.038;6.992;2022-09-17T14:54:14;2.80;;;1.00;;
19842;SDS011;10082;51.038;6.992;2022-09-17T14:56:52;1.50;;;0.90;;
19842;SDS011;10082;51.038;6.992;2022-09-17T14:59:22;2.65;;;1.10;;
19842;SDS011;10082;51.038;6.992;2022-09-17T15:01:54;2.47;;;0.95;;
19842;SDS011;10082;51.038;6.992;2022-09-17T15:04:24;2.70;;;1.00;;
19842;SDS011;10082;51.038;6.992;2022-09-17T15:06:52;4.90;;;1.40;;
19842;SDS011;10082;51.038;6.992;2022-09-17T15:09:21;5.25;;;1.60;;
19842;SDS011;10082;51.038;6.992;2022-09-17T15:11:50;4.05;;;1.35;;
19842;SDS011;10082;51.038;6.992;2022-09-17T15:14:20;2.80;;;1.25;;
19842;SDS011;10082;51.038;6.992;2022-09-17T15:16:50;3.08;;;1.30;;
19842;SDS011;10082;51.038;6.992;2022-09-17T15:19:21;3.13;;;1.30;;
19842;SDS011;10082;51.038;6.992;2022-09-17T15:21:55;3.47;;;1.38;;
19842;SDS011;10082;51.038;6.992;2022-09-17T15:24:26;5.10;;;1.40;;
19842;SDS011;10082;51.038;6.992;2022-09-17T15:27:02;3.67;;;1.48;;
19842;SDS011;10082;51.038;6.992;2022-09-17T15:29:34;4.50;;;1.35;;
19842;SDS011;10082;51.038;6.992;2022-09-17T15:32:03;3.63;;;1.40;;
19842;SDS011;10082;51.038;6.992;2022-09-17T15:34:32;4.22;;;1.15;;
19842;SDS011;10082;51.038;6.992;2022-09-17T15:37:03;2.97;;;1.27;;
19842;SDS011;10082;51.038;6.992;2022-09-17T15:39:38;3.85;;;1.27;;
19842;SDS011;10082;51.038;6.992;2022-09-17T15:42:16;5.88;;;1.60;;
19842;SDS011;10082;51.038;6.992;2022-09-17T15:44:44;4.72;;;1.10;;
19842;SDS011;10082;51.038;6.992;2022-09-17T15:50:17;5.45;;;1.48;;
19842;SDS011;10082;51.038;6.992;2022-09-17T15:52:46;4.30;;;1.20;;